Hot Springs Recreation Area, Montana
Current Conditions -  °F | °C
As of 12:55 PM on Thursday 18 Dec 2014 (Local Time) from KSMN Reporting Station
Overcast Overcast  
Wind Chill: 27°   Ceiling: 6500
Heat Index: 27°   Visibility: 10mi
Dew Point: 18°   Wind: 3mph
Humidity: 69%   Direction: 320°NW
Pressure: 30.09"   Gusts: NA
Location:  45.36°N, 113.46°W
Report Text: KSMN 181955Z AUTO 32003KT 10SM OVC065 M03/M08 A3009 RMK AO1
Loading
Personal Weather Stations






























Interactive Weather Map New forecast layout! Learn more

10-Day Weather Forecast

Advertisements
Track Severe Weather on mobile